Des Lacs, ND

3:44 PM CDT on August 20, 2014 (GMT -0500)
Minot International | Change Station
CLOSE
Current Station
Airport
Location: Minot,
Elevation: 1716 ft
Nearby Weather Stations
Active Advisory: Special Statement

Elev 1716 ft 48.26 °N, 101.28 °W | Updated 50 minutes ago

Clear
Clear
84 °F
Feels Like 84 °F
N
13
Wind Variable Wind from SSE

Today
High -- | Low -- °F
--% Chance of Precip.
Yesterday
High -- | Low -- °F
Precip. -- in
6:47 AM 8:50 PM
Waning Crescent, 19% visible
Pressure 29.68 in
Visibility 10.0 miles
Clouds Clear
Heat Index 84 °F
Dew Point 60 °F
Humidity 44%
Rainfall 0.00 in
Snow Depth Not available.
UV 8 out of 12
Pollen 9.10 out of 12
Air Quality Not available.
Flu Activity Not available.
METAR KMOT 201954Z 15011KT 10SM CLR 29/16 A2971 RMK AO2 SLP051 T02890156

More Conditions Fewer Conditions

Pressure 29.68 in
Visibility 10.0 miles
Clouds Clear
Heat Index 84 °F
Dew Point 60 °F
Humidity 44%
Rainfall 0.00 in
Snow Depth Not available.
UV 8 out of 12
Pollen 9.10 out of 12
Air Quality Not available.
Flu Activity Not available.
METAR KMOT 201954Z 15011KT 10SM CLR 29/16 A2971 RMK AO2 SLP051 T02890156

More Conditions Fewer Conditions

10-Day Weather Forecast

Almanac

Astronomy

Aug. 20, 2014 Rise Set
Actual Time 6:47 AM CDT 8:50 PM CDT
Civil Twilight 6:13 AM CDT 9:24 PM CDT
Nautical Twilight 5:31 AM CDT 10:06 PM CDT
Astronomical Twilight 4:45 AM CDT 10:52 PM CDT
Moon 2:20 AM CDT 5:45 PM CDT
Length of Visible Light 15h 10m
Length of Day
14h 03m
Tomorrow will be 3m 15s shorter.
Waning Crescent, 19% of the Moon is Illuminated
Today
Waning Crescent
Aug 25
New
Sep 2
First Quarter
Sep 8
Full
Sep 15
Last Quarter

Today's Extremes

State Highs State Lows

Community

WunderPhotos

Upload Photos

1,745,750 photos uploaded!

WunderBlogs® & News

By Dr. Jeff Masters
Director of Meteorology, Weather Underground
By Kari Strenfel
Meteorologist, Weather Underground
By Christopher C. Burt
Weather Historian, Weather Underground
August 20, 2014
August 20, 2014
August 20, 2014

Nearby

Snow Depth

Station Depth Elevation
No new snow has been reported.

Earthquake Activity

City Distance Mag. Time & Date
No recent earthquake activity has been reported nearby.
Minimum magnitude displayed is 2.5.

Coastal Water Temperatures

Place Temperature
No Stations Reporting

Nearby Weather Stations